createdAt,value
2018-08-28T00:02:22.107Z,63.30
2018-08-28T00:04:51.124Z,63.48
2018-08-28T00:07:19.859Z,63.24
2018-08-28T00:09:48.688Z,63.51
2018-08-28T00:12:17.331Z,63.65
2018-08-28T00:14:46.058Z,64.07
2018-08-28T00:17:14.750Z,63.89
2018-08-28T00:19:43.575Z,63.90
2018-08-28T00:22:12.699Z,64.31
2018-08-28T00:24:41.240Z,64.42
2018-08-28T00:27:09.931Z,63.91
2018-08-28T00:29:38.464Z,64.20
2018-08-28T00:32:07.125Z,64.99
2018-08-28T00:34:36.526Z,65.27
2018-08-28T00:37:05.252Z,64.43
2018-08-28T00:39:33.915Z,64.43
2018-08-28T00:42:02.667Z,63.34
2018-08-28T00:44:31.351Z,63.02
2018-08-28T00:46:59.992Z,62.91
2018-08-28T00:49:28.654Z,63.17
2018-08-28T00:51:57.352Z,63.19
2018-08-28T00:54:26.020Z,62.92
2018-08-28T00:56:54.804Z,62.46
2018-08-28T00:59:23.528Z,62.56
2018-08-28T01:01:52.376Z,63.01
2018-08-28T01:04:21.808Z,62.82
2018-08-28T01:06:50.808Z,62.76
2018-08-28T01:09:20.381Z,61.92
2018-08-28T01:11:48.965Z,62.04
2018-08-28T01:14:17.764Z,62.51
2018-08-28T01:16:47.318Z,62.76
2018-08-28T01:19:16.176Z,63.05
2018-08-28T01:21:44.901Z,63.31
2018-08-28T01:24:13.582Z,63.58
2018-08-28T01:26:42.188Z,64.19
2018-08-28T01:29:10.899Z,64.09
2018-08-28T01:31:39.588Z,64.43
2018-08-28T01:34:08.243Z,63.64
2018-08-28T01:36:37.024Z,64.15
2018-08-28T01:39:06.959Z,64.53
2018-08-28T01:41:35.524Z,63.84
2018-08-28T01:44:04.779Z,63.71
2018-08-28T01:46:33.520Z,63.90
2018-08-28T01:49:02.440Z,63.62
2018-08-28T01:51:31.698Z,63.96
2018-08-28T01:54:00.395Z,64.04
2018-08-28T01:56:29.116Z,63.34
2018-08-28T01:58:57.794Z,62.38
2018-08-28T02:01:26.639Z,61.76
2018-08-28T02:03:55.515Z,61.29
2018-08-28T02:06:24.402Z,62.03
2018-08-28T02:08:53.258Z,61.33
2018-08-28T02:11:22.149Z,61.87
2018-08-28T02:13:51.636Z,61.99
2018-08-28T02:16:20.486Z,61.65
2018-08-28T02:18:49.507Z,62.75
2018-08-28T02:21:18.799Z,63.08
2018-08-28T02:23:47.488Z,63.59
2018-08-28T02:26:16.155Z,64.04
2018-08-28T02:28:44.715Z,64.58
2018-08-28T02:31:13.916Z,64.74
2018-08-28T02:33:42.981Z,64.55
2018-08-28T02:36:12.227Z,64.70
2018-08-28T02:38:40.877Z,64.76
2018-08-28T02:41:09.559Z,65.23
2018-08-28T02:43:38.180Z,65.92
2018-08-28T02:46:06.871Z,64.68
2018-08-28T02:48:35.729Z,64.80
2018-08-28T02:51:04.427Z,64.27
2018-08-28T02:53:33.129Z,64.22
2018-08-28T02:56:01.907Z,64.14
2018-08-28T02:58:30.546Z,63.44
2018-08-28T03:00:59.076Z,63.92
2018-08-28T03:03:27.797Z,63.98
2018-08-28T03:05:56.560Z,64.70
2018-08-28T03:08:25.287Z,64.43
2018-08-28T03:10:53.935Z,64.15
2018-08-28T03:13:22.806Z,64.37
2018-08-28T03:15:51.605Z,65.15
2018-08-28T03:18:20.364Z,64.60
2018-08-28T03:20:48.906Z,64.81
2018-08-28T03:23:18.350Z,64.60
2018-08-28T03:25:46.977Z,63.54
2018-08-28T03:28:16.547Z,64.06
2018-08-28T03:30:46.060Z,64.50
2018-08-28T03:33:14.815Z,64.68
2018-08-28T03:35:43.577Z,64.17
2018-08-28T03:38:12.571Z,63.31
2018-08-28T03:40:41.633Z,64.04
2018-08-28T03:43:12.025Z,64.53
2018-08-28T03:45:40.700Z,63.94
2018-08-28T03:48:09.472Z,63.16
2018-08-28T03:50:38.908Z,62.40
2018-08-28T03:53:07.990Z,63.20
2018-08-28T03:55:36.800Z,63.99
2018-08-28T03:58:05.911Z,64.83
2018-08-28T04:00:34.667Z,65.68
2018-08-28T04:03:04.290Z,64.87
2018-08-28T04:05:33.192Z,65.05
2018-08-28T04:08:01.867Z,64.90
2018-08-28T04:10:30.656Z,65.43
2018-08-28T04:12:59.464Z,65.35
2018-08-28T04:15:28.167Z,64.60
2018-08-28T04:17:57.139Z,64.83
2018-08-28T04:20:25.907Z,64.20
2018-08-28T04:22:55.308Z,63.92
2018-08-28T04:25:23.944Z,64.34
2018-08-28T04:27:52.757Z,64.07
2018-08-28T04:30:21.463Z,63.76
2018-08-28T04:32:50.011Z,63.44
2018-08-28T04:35:18.637Z,63.48
2018-08-28T04:37:47.783Z,64.07
2018-08-28T04:40:17.008Z,64.26
2018-08-28T04:42:46.192Z,63.55
2018-08-28T04:45:14.761Z,63.34
2018-08-28T04:47:43.329Z,62.84
2018-08-28T04:50:11.936Z,63.13
2018-08-28T04:52:41.189Z,63.05
2018-08-28T04:55:10.025Z,62.40
2018-08-28T04:57:38.643Z,62.23
2018-08-28T05:00:08.052Z,62.03
2018-08-28T05:02:38.068Z,61.93
2018-08-28T05:05:08.986Z,62.72
2018-08-28T05:07:37.540Z,63.08
2018-08-28T05:10:07.028Z,62.78
2018-08-28T05:12:35.689Z,63.26
2018-08-28T05:15:05.560Z,63.32
2018-08-28T05:17:34.109Z,62.99
2018-08-28T05:20:02.966Z,62.88
2018-08-28T05:22:31.675Z,63.25
2018-08-28T05:25:00.567Z,62.74
2018-08-28T05:27:30.289Z,62.77
2018-08-28T05:29:59.500Z,62.71
2018-08-28T05:32:28.430Z,62.50
2018-08-28T05:34:57.468Z,62.72
2018-08-28T05:37:26.178Z,62.24
2018-08-28T05:39:55.262Z,61.76
2018-08-28T05:42:24.822Z,61.31
2018-08-28T05:44:54.220Z,60.78
2018-08-28T05:47:22.939Z,60.18
2018-08-28T05:49:51.847Z,60.33
2018-08-28T05:52:20.816Z,60.49
2018-08-28T05:54:49.686Z,60.11
2018-08-28T05:57:18.525Z,60.47
2018-08-28T05:59:47.819Z,59.93
2018-08-28T06:02:17.584Z,59.80
2018-08-28T06:04:46.353Z,59.16
2018-08-28T06:07:14.943Z,59.78
2018-08-28T06:09:43.743Z,59.15
2018-08-28T06:12:12.562Z,58.38
2018-08-28T06:14:41.695Z,57.90
2018-08-28T06:17:10.394Z,58.45
2018-08-28T06:19:39.132Z,58.91
2018-08-28T06:22:08.432Z,59.29
2018-08-28T06:24:37.865Z,58.46
2018-08-28T06:27:06.648Z,57.98
2018-08-28T06:29:35.804Z,57.65
2018-08-28T06:32:04.522Z,57.37
2018-08-28T06:34:33.256Z,57.04
2018-08-28T06:37:02.233Z,56.67
2018-08-28T06:39:30.886Z,56.86
2018-08-28T06:41:59.528Z,56.66
2018-08-28T06:44:28.377Z,57.04
2018-08-28T06:46:56.915Z,56.14
2018-08-28T06:49:25.810Z,55.52
2018-08-28T06:51:54.491Z,54.40
2018-08-28T06:54:23.200Z,54.03
2018-08-28T06:56:51.960Z,53.91
2018-08-28T06:59:20.732Z,53.85
2018-08-28T07:01:50.035Z,53.60
2018-08-28T07:04:18.892Z,53.53
2018-08-28T07:06:47.599Z,53.42
2018-08-28T07:09:16.273Z,53.69
2018-08-28T07:11:44.963Z,53.88
2018-08-28T07:14:13.644Z,53.49
2018-08-28T07:16:42.480Z,51.70
2018-08-28T07:22:13.552Z,51.76
2018-08-28T07:24:42.395Z,53.28
2018-08-28T07:27:11.074Z,52.53
2018-08-28T07:29:39.667Z,51.62
2018-08-28T07:32:08.220Z,52.04
2018-08-28T07:34:36.945Z,51.74
2018-08-28T07:37:05.772Z,51.51
2018-08-28T07:39:35.139Z,51.98
2018-08-28T07:42:03.702Z,52.15
2018-08-28T07:44:32.244Z,51.46
2018-08-28T07:47:01.684Z,49.40
2018-08-28T07:49:30.265Z,50.53
2018-08-28T07:51:58.827Z,51.01
2018-08-28T07:54:27.364Z,49.15
2018-08-28T07:56:56.115Z,50.32
2018-08-28T07:59:24.808Z,48.32
2018-08-28T08:01:53.495Z,48.65
2018-08-28T08:04:22.193Z,49.42
2018-08-28T08:06:50.844Z,48.50
2018-08-28T08:09:19.539Z,48.19
2018-08-28T08:11:48.844Z,46.90
2018-08-28T08:14:17.560Z,46.63
2018-08-28T08:16:46.227Z,45.51
2018-08-28T08:19:14.804Z,44.60
2018-08-28T08:21:44.183Z,43.83
2018-08-28T08:24:13.489Z,44.12
2018-08-28T08:26:42.254Z,43.41
2018-08-28T08:29:10.977Z,43.23
2018-08-28T08:31:40.259Z,44.28
2018-08-28T08:34:09.728Z,44.41
2018-08-28T08:36:39.175Z,44.18
2018-08-28T08:39:09.895Z,45.27
2018-08-28T08:41:39.041Z,45.19
2018-08-28T08:44:08.320Z,43.56
2018-08-28T08:46:36.976Z,42.44
2018-08-28T08:49:05.727Z,42.64
2018-08-28T08:51:34.391Z,42.63
2018-08-28T08:54:03.015Z,41.62
2018-08-28T08:56:31.556Z,41.89
2018-08-28T08:59:00.837Z,41.32
2018-08-28T09:01:29.483Z,41.37
2018-08-28T09:03:58.020Z,40.49
2018-08-28T09:06:26.663Z,41.03
2018-08-28T09:08:55.387Z,40.61
2018-08-28T09:11:24.639Z,39.80
2018-08-28T09:13:53.277Z,39.58
2018-08-28T09:16:22.791Z,40.63
2018-08-28T09:18:51.519Z,40.30
2018-08-28T09:21:21.579Z,39.81
2018-08-28T09:23:50.484Z,40.70
2018-08-28T09:26:19.018Z,40.19
2018-08-28T09:28:47.877Z,39.65
2018-08-28T09:31:16.904Z,40.56
2018-08-28T09:33:46.483Z,40.56
2018-08-28T09:36:15.124Z,40.17
2018-08-28T09:38:43.867Z,40.52
2018-08-28T09:41:12.723Z,40.66
2018-08-28T09:43:41.470Z,40.69
2018-08-28T09:46:10.316Z,40.55
2018-08-28T09:48:39.194Z,41.30
2018-08-28T09:51:07.924Z,41.28
2018-08-28T09:53:36.618Z,40.68
2018-08-28T09:56:05.460Z,40.82
2018-08-28T09:58:34.407Z,40.52
2018-08-28T10:01:08.097Z,40.70
2018-08-28T10:03:37.492Z,40.06
2018-08-28T10:06:06.632Z,39.48
2018-08-28T10:08:36.277Z,39.15
2018-08-28T10:11:05.131Z,39.88
2018-08-28T10:13:34.322Z,39.89
2018-08-28T10:16:03.297Z,41.14
2018-08-28T10:18:32.071Z,41.41
2018-08-28T10:21:00.974Z,40.34
2018-08-28T10:23:29.608Z,39.99
2018-08-28T10:25:58.497Z,39.24
2018-08-28T10:28:27.401Z,38.05
2018-08-28T10:30:56.120Z,37.72
2018-08-28T10:33:24.936Z,37.86
2018-08-28T10:35:53.619Z,37.96
2018-08-28T10:38:22.833Z,38.91
2018-08-28T10:40:51.815Z,39.57
2018-08-28T10:43:20.470Z,39.64
2018-08-28T10:45:49.920Z,40.28
2018-08-28T10:48:18.556Z,39.84
2018-08-28T10:50:47.401Z,39.52
2018-08-28T10:53:16.083Z,38.32
2018-08-28T10:55:45.650Z,38.68
2018-08-28T10:58:14.768Z,37.97
2018-08-28T11:00:43.691Z,38.16
2018-08-28T11:03:13.160Z,37.12
2018-08-28T11:05:43.217Z,37.52
2018-08-28T11:08:11.753Z,38.62
2018-08-28T11:10:40.375Z,37.77
2018-08-28T11:13:09.097Z,38.12
2018-08-28T11:15:37.715Z,38.41
2018-08-28T11:18:06.490Z,38.95
2018-08-28T11:20:35.016Z,39.65
2018-08-28T11:23:03.701Z,39.60
2018-08-28T11:25:32.159Z,38.93
2018-08-28T11:28:00.705Z,39.44
2018-08-28T11:30:29.479Z,38.81
2018-08-28T11:32:58.092Z,37.37
2018-08-28T11:35:26.632Z,36.19
2018-08-28T11:37:55.468Z,37.03
2018-08-28T11:40:24.748Z,36.62
2018-08-28T11:42:53.895Z,36.85
2018-08-28T11:45:22.535Z,37.55
2018-08-28T11:47:51.468Z,38.14
2018-08-28T11:50:19.883Z,38.66
2018-08-28T11:52:48.636Z,38.12
2018-08-28T11:55:17.221Z,38.34
2018-08-28T11:57:45.788Z,38.37
2018-08-28T12:00:16.284Z,39.54
2018-08-28T12:02:44.903Z,39.37
2018-08-28T12:05:13.476Z,39.04
2018-08-28T12:07:42.423Z,38.59
2018-08-28T12:10:13.469Z,39.14
2018-08-28T12:12:42.820Z,39.22
2018-08-28T12:15:11.600Z,39.43
2018-08-28T12:17:40.561Z,39.34
2018-08-28T12:20:10.268Z,40.83
2018-08-28T12:22:38.968Z,40.71
2018-08-28T12:25:08.455Z,40.69
2018-08-28T12:27:37.516Z,40.53
2018-08-28T12:30:07.664Z,39.80
2018-08-28T12:32:36.208Z,39.64
2018-08-28T12:35:05.550Z,37.39
2018-08-28T12:37:34.088Z,37.69
2018-08-28T12:40:03.356Z,36.45
2018-08-28T12:42:32.986Z,36.26
2018-08-28T12:45:02.260Z,36.60
2018-08-28T12:47:31.969Z,37.26
2018-08-28T12:50:00.675Z,38.48
2018-08-28T12:52:30.156Z,38.35
2018-08-28T12:54:59.701Z,38.43
2018-08-28T12:57:28.295Z,37.71
2018-08-28T12:59:56.924Z,37.08
2018-08-28T13:02:25.790Z,35.65
2018-08-28T13:04:54.325Z,35.63
2018-08-28T13:07:22.952Z,35.95
2018-08-28T13:09:51.912Z,34.60
2018-08-28T13:12:20.525Z,36.20
2018-08-28T13:14:49.176Z,36.34
2018-08-28T13:17:17.699Z,35.84
2018-08-28T13:19:46.248Z,36.16
2018-08-28T13:22:15.150Z,35.00
2018-08-28T13:24:43.841Z,34.83
2018-08-28T13:27:12.851Z,34.16
2018-08-28T13:29:41.420Z,33.86
2018-08-28T13:32:10.157Z,33.80
2018-08-28T13:34:38.912Z,32.80
2018-08-28T13:37:07.566Z,33.06
2018-08-28T13:39:36.549Z,31.91
2018-08-28T13:42:05.188Z,31.92
2018-08-28T13:44:33.737Z,32.11
2018-08-28T13:47:02.419Z,32.52
2018-08-28T13:49:31.461Z,31.96
2018-08-28T13:52:00.363Z,32.23
2018-08-28T13:54:29.096Z,32.32
2018-08-28T13:56:57.501Z,31.78
2018-08-28T13:59:26.448Z,32.58
2018-08-28T14:01:55.023Z,31.98
2018-08-28T14:04:23.587Z,32.89
2018-08-28T14:06:52.211Z,33.76
2018-08-28T14:09:20.752Z,32.01
2018-08-28T14:11:49.317Z,32.36
2018-08-28T14:14:17.903Z,32.43
2018-08-28T14:16:46.540Z,33.22
2018-08-28T14:19:15.054Z,33.41
2018-08-28T14:21:44.016Z,32.62
2018-08-28T14:24:12.582Z,31.51
2018-08-28T14:26:41.285Z,31.75
2018-08-28T14:29:10.300Z,31.40
2018-08-28T14:31:38.984Z,31.03
2018-08-28T14:34:07.564Z,31.67
2018-08-28T14:36:36.132Z,31.68
2018-08-28T14:39:05.891Z,33.46
2018-08-28T14:41:34.923Z,34.80
2018-08-28T14:44:04.388Z,34.34
2018-08-28T14:46:32.979Z,34.71
2018-08-28T14:49:01.561Z,34.85
2018-08-28T14:51:30.195Z,34.08
2018-08-28T14:53:58.792Z,34.16
2018-08-28T14:56:27.422Z,34.68
2018-08-28T14:58:56.241Z,34.01
2018-08-28T15:01:24.781Z,33.75
2018-08-28T15:03:53.470Z,33.29
2018-08-28T15:06:22.092Z,33.51
2018-08-28T15:08:50.636Z,33.67
2018-08-28T15:11:20.332Z,32.25
2018-08-28T15:13:49.369Z,33.67
2018-08-28T15:16:18.426Z,33.97
2018-08-28T15:18:47.281Z,33.25
2018-08-28T15:21:16.772Z,32.65
2018-08-28T15:23:45.819Z,32.87
2018-08-28T15:26:14.515Z,32.09
2018-08-28T15:28:43.167Z,32.71
2018-08-28T15:31:20.715Z,32.89
2018-08-28T15:33:50.320Z,33.96
2018-08-28T15:36:20.415Z,32.37
2018-08-28T15:38:49.200Z,33.43
2018-08-28T15:41:18.077Z,33.13
2018-08-28T15:43:47.816Z,33.80
2018-08-28T15:46:16.555Z,33.62
2018-08-28T15:48:45.296Z,33.69
2018-08-28T15:51:14.511Z,34.08
2018-08-28T15:53:44.195Z,32.56
2018-08-28T15:56:13.166Z,33.25
2018-08-28T15:58:42.451Z,33.64
2018-08-28T16:01:12.321Z,33.26
2018-08-28T16:03:42.125Z,33.04
2018-08-28T16:06:11.156Z,34.53
2018-08-28T16:08:40.173Z,34.06
2018-08-28T16:11:08.901Z,33.72
2018-08-28T16:13:37.546Z,35.68
2018-08-28T16:16:06.255Z,35.90
2018-08-28T16:21:41.700Z,35.65
2018-08-28T16:24:10.311Z,36.61
2018-08-28T16:26:38.921Z,36.68
2018-08-28T16:29:07.875Z,36.90
2018-08-28T16:31:36.675Z,38.11
2018-08-28T16:34:06.360Z,39.02
2018-08-28T16:36:34.878Z,39.35
2018-08-28T16:39:03.753Z,40.63
2018-08-28T16:41:32.336Z,41.71
2018-08-28T16:44:00.862Z,41.17
2018-08-28T16:46:29.460Z,40.54
2018-08-28T16:48:58.553Z,42.32
2018-08-28T16:51:27.415Z,43.35
2018-08-28T16:53:56.210Z,44.68
2018-08-28T16:56:25.115Z,45.65
2018-08-28T16:58:53.839Z,46.58
2018-08-28T17:01:22.737Z,47.08
2018-08-28T17:03:52.071Z,48.30
2018-08-28T17:06:20.716Z,48.57
2018-08-28T17:08:49.510Z,49.75
2018-08-28T17:11:18.268Z,49.62
2018-08-28T17:13:46.820Z,50.40
2018-08-28T17:16:15.646Z,51.02
2018-08-28T17:18:44.510Z,51.16
2018-08-28T17:21:13.335Z,51.15
2018-08-28T17:23:41.952Z,52.21
2018-08-28T17:26:10.569Z,51.90
2018-08-28T17:28:40.472Z,52.71
2018-08-28T17:31:10.241Z,52.88
2018-08-28T17:33:39.075Z,53.37
2018-08-28T17:36:07.776Z,53.57
2018-08-28T17:38:36.544Z,53.55
2018-08-28T17:41:06.572Z,54.87
2018-08-28T17:43:35.275Z,54.77
2018-08-28T17:46:04.179Z,55.64
2018-08-28T17:48:32.932Z,55.86
2018-08-28T17:51:02.121Z,55.21
2018-08-28T17:53:31.024Z,55.49
2018-08-28T17:55:59.576Z,56.25
2018-08-28T17:58:29.040Z,56.71
2018-08-28T18:00:57.705Z,56.13
2018-08-28T18:03:26.991Z,56.08
2018-08-28T18:05:55.657Z,56.66
2018-08-28T18:08:24.520Z,56.73
2018-08-28T18:10:54.616Z,56.09
2018-08-28T18:13:24.020Z,57.05
2018-08-28T18:15:52.556Z,57.28
2018-08-28T18:18:21.552Z,56.92
2018-08-28T18:20:50.493Z,56.87
2018-08-28T18:23:19.107Z,57.49
2018-08-28T18:25:47.854Z,57.63
2018-08-28T18:28:17.152Z,57.12
2018-08-28T18:30:45.965Z,57.33
2018-08-28T18:33:16.535Z,56.83
2018-08-28T18:35:45.914Z,57.04
2018-08-28T18:38:14.504Z,57.45
2018-08-28T18:40:43.236Z,57.85
2018-08-28T18:43:12.040Z,56.82
2018-08-28T18:45:41.803Z,56.82
2018-08-28T18:48:10.508Z,56.95
2018-08-28T18:50:39.364Z,56.41
2018-08-28T18:53:08.432Z,56.22
2018-08-28T18:55:37.147Z,57.08
2018-08-28T18:58:06.244Z,57.82
2018-08-28T19:00:35.011Z,58.23
2018-08-28T19:03:03.852Z,58.48
2018-08-28T19:05:32.996Z,58.60
2018-08-28T19:08:02.564Z,57.94
2018-08-28T19:10:31.297Z,57.44
2018-08-28T19:12:59.976Z,57.72
2018-08-28T19:15:28.627Z,58.68
2018-08-28T19:17:57.543Z,59.75
2018-08-28T19:20:26.887Z,59.34
2018-08-28T19:22:55.518Z,59.25
2018-08-28T19:25:25.103Z,59.09
2018-08-28T19:27:53.724Z,58.75
2018-08-28T19:30:22.264Z,58.53
2018-08-28T19:32:51.136Z,58.58
2018-08-28T19:35:19.851Z,58.94
2018-08-28T19:37:48.509Z,58.78
2018-08-28T19:40:17.132Z,60.03
2018-08-28T19:42:45.900Z,59.56
2018-08-28T19:45:14.519Z,59.69
2018-08-28T19:47:43.484Z,59.17
2018-08-28T19:50:12.324Z,59.37
2018-08-28T19:52:40.992Z,59.56
2018-08-28T19:55:10.042Z,60.03
2018-08-28T19:57:39.004Z,59.97
2018-08-28T20:00:09.101Z,60.35
2018-08-28T20:02:38.800Z,59.59
2018-08-28T20:05:07.492Z,59.70
2018-08-28T20:07:36.616Z,59.98
2018-08-28T20:10:06.056Z,59.80
2018-08-28T20:12:34.980Z,59.92
2018-08-28T20:15:04.143Z,58.91
2018-08-28T20:17:32.742Z,59.78
2018-08-28T20:20:01.732Z,60.65
2018-08-28T20:22:30.908Z,60.27
2018-08-28T20:25:00.187Z,60.97
2018-08-28T20:27:29.244Z,61.09
2018-08-28T20:29:58.087Z,60.43
2018-08-28T20:32:27.549Z,60.24
2018-08-28T20:34:56.828Z,60.42
2018-08-28T20:37:26.192Z,61.08
2018-08-28T20:39:55.696Z,61.40
2018-08-28T20:42:24.512Z,61.47
2018-08-28T20:44:53.569Z,61.54
2018-08-28T20:47:22.532Z,61.71
2018-08-28T20:49:51.187Z,61.35
2018-08-28T20:52:20.251Z,62.29
2018-08-28T20:54:49.184Z,61.68
2018-08-28T20:57:17.847Z,61.56
2018-08-28T20:59:46.675Z,61.48
2018-08-28T21:02:15.425Z,61.49
2018-08-28T21:04:44.182Z,61.74
2018-08-28T21:07:13.613Z,62.55
2018-08-28T21:09:43.368Z,62.14
2018-08-28T21:12:12.009Z,62.21
2018-08-28T21:14:41.253Z,62.68
2018-08-28T21:17:09.980Z,62.72
2018-08-28T21:19:38.731Z,62.36
2018-08-28T21:22:07.371Z,62.51
2018-08-28T21:24:36.031Z,62.25
2018-08-28T21:27:04.735Z,62.85
2018-08-28T21:29:33.511Z,62.12
2018-08-28T21:32:02.084Z,62.68
2018-08-28T21:34:31.725Z,61.84
2018-08-28T21:37:01.251Z,61.96
2018-08-28T21:39:30.136Z,61.83
2018-08-28T21:41:58.894Z,62.37
2018-08-28T21:44:28.140Z,62.52
2018-08-28T21:46:56.859Z,62.81
2018-08-28T21:49:26.148Z,63.36
2018-08-28T21:51:54.820Z,63.22
2018-08-28T21:54:23.528Z,63.76
2018-08-28T21:56:52.059Z,63.34
2018-08-28T21:59:20.676Z,63.90
2018-08-28T22:01:49.588Z,63.93
2018-08-28T22:04:18.497Z,63.40
2018-08-28T22:06:55.887Z,63.46
2018-08-28T22:09:24.877Z,63.08
2018-08-28T22:11:54.853Z,63.39
2018-08-28T22:14:23.869Z,64.07
2018-08-28T22:16:52.748Z,63.80
2018-08-28T22:22:24.402Z,63.75
2018-08-28T22:24:54.568Z,63.50
2018-08-28T22:27:23.569Z,63.77
2018-08-28T22:29:52.128Z,64.33
2018-08-28T22:32:20.898Z,63.78
2018-08-28T22:34:50.941Z,64.01
2018-08-28T22:37:20.644Z,63.64
2018-08-28T22:39:49.425Z,64.41
2018-08-28T22:42:18.371Z,64.68
2018-08-28T22:44:47.227Z,64.38
2018-08-28T22:47:17.621Z,64.57
2018-08-28T22:49:46.614Z,64.35
2018-08-28T22:52:15.303Z,64.02
2018-08-28T22:54:44.001Z,64.29
2018-08-28T22:57:13.895Z,64.05
2018-08-28T22:59:43.383Z,64.07
2018-08-28T23:02:12.240Z,64.02
2018-08-28T23:04:41.617Z,64.15
2018-08-28T23:07:10.841Z,64.51
2018-08-28T23:09:39.563Z,64.21
2018-08-28T23:12:08.871Z,63.82
2018-08-28T23:14:37.711Z,64.70
2018-08-28T23:17:06.465Z,64.07
2018-08-28T23:19:35.732Z,63.90
2018-08-28T23:22:04.347Z,64.27
2018-08-28T23:24:33.145Z,64.41
2018-08-28T23:27:01.753Z,64.04
2018-08-28T23:29:30.521Z,64.53
2018-08-28T23:32:00.220Z,64.79
2018-08-28T23:34:29.460Z,65.52
2018-08-28T23:36:58.452Z,65.77
2018-08-28T23:39:27.515Z,65.65
2018-08-28T23:41:56.710Z,66.41
2018-08-28T23:44:26.327Z,66.53
2018-08-28T23:46:56.224Z,66.97
2018-08-28T23:49:25.261Z,67.03
2018-08-28T23:51:54.342Z,67.09
2018-08-28T23:54:23.241Z,66.62
2018-08-28T23:56:52.694Z,67.00
2018-08-28T23:59:22.460Z,67.72
